sensor_id;sensor_type;location;lat;lon;timestamp;P1;durP1;ratioP1;P2;durP2;ratioP2
7773;SDS011;3931;42.260;23.116;2022-09-01T00:02:03;27.33;;;14.10;;
7773;SDS011;3931;42.260;23.116;2022-09-01T00:04:33;15.87;;;12.53;;
7773;SDS011;3931;42.260;23.116;2022-09-01T00:07:03;20.77;;;13.13;;
7773;SDS011;3931;42.260;23.116;2022-09-01T00:09:30;17.27;;;13.97;;
7773;SDS011;3931;42.260;23.116;2022-09-01T00:11:56;19.40;;;14.90;;
7773;SDS011;3931;42.260;23.116;2022-09-01T00:14:23;17.90;;;14.20;;
7773;SDS011;3931;42.260;23.116;2022-09-01T00:16:51;14.57;;;11.60;;
7773;SDS011;3931;42.260;23.116;2022-09-01T00:19:18;13.60;;;11.70;;
7773;SDS011;3931;42.260;23.116;2022-09-01T00:21:44;21.40;;;12.53;;
7773;SDS011;3931;42.260;23.116;2022-09-01T00:24:12;13.57;;;12.17;;
7773;SDS011;3931;42.260;23.116;2022-09-01T00:26:39;19.17;;;13.57;;
7773;SDS011;3931;42.260;23.116;2022-09-01T00:29:05;17.17;;;12.90;;
7773;SDS011;3931;42.260;23.116;2022-09-01T00:31:32;16.13;;;12.53;;
7773;SDS011;3931;42.260;23.116;2022-09-01T00:33:59;21.40;;;14.00;;
7773;SDS011;3931;42.260;23.116;2022-09-01T00:36:26;14.70;;;12.90;;
7773;SDS011;3931;42.260;23.116;2022-09-01T00:38:52;24.70;;;14.30;;
7773;SDS011;3931;42.260;23.116;2022-09-01T00:41:20;19.70;;;13.07;;
7773;SDS011;3931;42.260;23.116;2022-09-01T00:43:49;17.07;;;13.40;;
7773;SDS011;3931;42.260;23.116;2022-09-01T00:46:17;17.83;;;13.60;;
7773;SDS011;3931;42.260;23.116;2022-09-01T00:48:45;19.23;;;12.30;;
7773;SDS011;3931;42.260;23.116;2022-09-01T00:51:13;16.73;;;12.50;;
7773;SDS011;3931;42.260;23.116;2022-09-01T00:53:41;17.23;;;12.33;;
7773;SDS011;3931;42.260;23.116;2022-09-01T00:56:09;28.53;;;11.87;;
7773;SDS011;3931;42.260;23.116;2022-09-01T00:58:37;16.77;;;12.47;;
7773;SDS011;3931;42.260;23.116;2022-09-01T01:01:04;15.63;;;12.30;;
7773;SDS011;3931;42.260;23.116;2022-09-01T01:03:31;25.53;;;12.97;;
7773;SDS011;3931;42.260;23.116;2022-09-01T01:05:57;15.47;;;12.20;;
7773;SDS011;3931;42.260;23.116;2022-09-01T01:08:30;17.37;;;13.13;;
7773;SDS011;3931;42.260;23.116;2022-09-01T01:10:58;16.30;;;12.13;;
7773;SDS011;3931;42.260;23.116;2022-09-01T01:13:24;14.00;;;12.17;;
7773;SDS011;3931;42.260;23.116;2022-09-01T01:15:54;13.87;;;11.77;;
7773;SDS011;3931;42.260;23.116;2022-09-01T01:18:20;14.07;;;12.53;;
7773;SDS011;3931;42.260;23.116;2022-09-01T01:20:46;17.03;;;12.03;;
7773;SDS011;3931;42.260;23.116;2022-09-01T01:23:34;13.97;;;11.70;;
7773;SDS011;3931;42.260;23.116;2022-09-01T01:26:05;14.97;;;10.90;;
7773;SDS011;3931;42.260;23.116;2022-09-01T01:28:36;21.53;;;12.00;;
7773;SDS011;3931;42.260;23.116;2022-09-01T01:31:05;16.77;;;11.70;;
7773;SDS011;3931;42.260;23.116;2022-09-01T01:33:36;17.83;;;12.70;;
7773;SDS011;3931;42.260;23.116;2022-09-01T01:36:06;13.90;;;12.43;;
7773;SDS011;3931;42.260;23.116;2022-09-01T01:38:36;18.40;;;12.27;;
7773;SDS011;3931;42.260;23.116;2022-09-01T01:41:04;16.70;;;13.57;;
7773;SDS011;3931;42.260;23.116;2022-09-01T01:43:30;14.53;;;11.43;;
7773;SDS011;3931;42.260;23.116;2022-09-01T01:45:57;15.93;;;12.73;;
7773;SDS011;3931;42.260;23.116;2022-09-01T01:48:27;16.47;;;12.87;;
7773;SDS011;3931;42.260;23.116;2022-09-01T01:50:54;21.80;;;12.57;;
7773;SDS011;3931;42.260;23.116;2022-09-01T01:53:22;14.27;;;12.80;;
7773;SDS011;3931;42.260;23.116;2022-09-01T01:55:48;14.03;;;12.10;;
7773;SDS011;3931;42.260;23.116;2022-09-01T01:58:15;14.13;;;12.37;;
7773;SDS011;3931;42.260;23.116;2022-09-01T02:00:43;18.07;;;12.30;;
7773;SDS011;3931;42.260;23.116;2022-09-01T02:03:11;19.10;;;12.53;;
7773;SDS011;3931;42.260;23.116;2022-09-01T02:05:41;14.63;;;12.67;;
7773;SDS011;3931;42.260;23.116;2022-09-01T02:08:08;13.90;;;12.33;;
7773;SDS011;3931;42.260;23.116;2022-09-01T02:10:38;16.00;;;12.67;;
7773;SDS011;3931;42.260;23.116;2022-09-01T02:13:06;20.70;;;13.50;;
7773;SDS011;3931;42.260;23.116;2022-09-01T02:15:37;31.67;;;13.23;;
7773;SDS011;3931;42.260;23.116;2022-09-01T02:18:08;13.50;;;11.33;;
7773;SDS011;3931;42.260;23.116;2022-09-01T02:20:35;16.60;;;12.67;;
7773;SDS011;3931;42.260;23.116;2022-09-01T02:23:01;17.27;;;13.03;;
7773;SDS011;3931;42.260;23.116;2022-09-01T02:25:33;18.30;;;13.40;;
7773;SDS011;3931;42.260;23.116;2022-09-01T02:28:00;16.70;;;13.70;;
7773;SDS011;3931;42.260;23.116;2022-09-01T02:30:28;16.93;;;13.17;;
7773;SDS011;3931;42.260;23.116;2022-09-01T02:32:57;20.40;;;13.50;;
7773;SDS011;3931;42.260;23.116;2022-09-01T02:35:24;17.63;;;12.93;;
7773;SDS011;3931;42.260;23.116;2022-09-01T02:37:52;17.90;;;13.20;;
7773;SDS011;3931;42.260;23.116;2022-09-01T02:40:21;15.60;;;13.53;;
7773;SDS011;3931;42.260;23.116;2022-09-01T02:42:48;18.33;;;13.10;;
7773;SDS011;3931;42.260;23.116;2022-09-01T02:45:17;19.77;;;13.23;;
7773;SDS011;3931;42.260;23.116;2022-09-01T02:47:44;15.93;;;12.30;;
7773;SDS011;3931;42.260;23.116;2022-09-01T02:50:13;14.13;;;12.50;;
7773;SDS011;3931;42.260;23.116;2022-09-01T02:52:44;16.10;;;12.77;;
7773;SDS011;3931;42.260;23.116;2022-09-01T02:55:13;15.30;;;12.50;;
7773;SDS011;3931;42.260;23.116;2022-09-01T02:57:45;14.13;;;12.30;;
7773;SDS011;3931;42.260;23.116;2022-09-01T03:00:12;17.90;;;12.10;;
7773;SDS011;3931;42.260;23.116;2022-09-01T03:02:48;23.20;;;12.77;;
7773;SDS011;3931;42.260;23.116;2022-09-01T03:05:17;19.77;;;12.83;;
7773;SDS011;3931;42.260;23.116;2022-09-01T03:07:49;26.63;;;13.13;;
7773;SDS011;3931;42.260;23.116;2022-09-01T03:10:21;24.97;;;11.80;;
7773;SDS011;3931;42.260;23.116;2022-09-01T03:12:51;16.23;;;12.20;;
7773;SDS011;3931;42.260;23.116;2022-09-01T03:15:18;15.90;;;12.87;;
7773;SDS011;3931;42.260;23.116;2022-09-01T03:17:45;17.97;;;12.90;;
7773;SDS011;3931;42.260;23.116;2022-09-01T03:20:12;18.23;;;14.10;;
7773;SDS011;3931;42.260;23.116;2022-09-01T03:22:39;24.77;;;14.00;;
7773;SDS011;3931;42.260;23.116;2022-09-01T03:25:05;14.40;;;12.40;;
7773;SDS011;3931;42.260;23.116;2022-09-01T03:27:32;22.90;;;13.67;;
7773;SDS011;3931;42.260;23.116;2022-09-01T03:29:58;15.13;;;11.57;;
7773;SDS011;3931;42.260;23.116;2022-09-01T03:32:24;16.30;;;12.83;;
7773;SDS011;3931;42.260;23.116;2022-09-01T03:34:50;18.87;;;12.97;;
7773;SDS011;3931;42.260;23.116;2022-09-01T03:37:16;25.83;;;13.83;;
7773;SDS011;3931;42.260;23.116;2022-09-01T03:39:43;17.63;;;12.07;;
7773;SDS011;3931;42.260;23.116;2022-09-01T03:42:10;13.20;;;11.80;;
7773;SDS011;3931;42.260;23.116;2022-09-01T03:44:36;19.60;;;14.50;;
7773;SDS011;3931;42.260;23.116;2022-09-01T03:47:05;18.90;;;13.43;;
7773;SDS011;3931;42.260;23.116;2022-09-01T03:49:34;17.23;;;12.60;;
7773;SDS011;3931;42.260;23.116;2022-09-01T03:52:02;17.23;;;13.30;;
7773;SDS011;3931;42.260;23.116;2022-09-01T03:54:28;20.07;;;13.83;;
7773;SDS011;3931;42.260;23.116;2022-09-01T03:56:55;26.50;;;14.07;;
7773;SDS011;3931;42.260;23.116;2022-09-01T03:59:23;17.13;;;12.97;;
7773;SDS011;3931;42.260;23.116;2022-09-01T04:01:50;31.13;;;19.30;;
7773;SDS011;3931;42.260;23.116;2022-09-01T04:04:16;53.40;;;30.13;;
7773;SDS011;3931;42.260;23.116;2022-09-01T04:06:42;25.03;;;17.43;;
7773;SDS011;3931;42.260;23.116;2022-09-01T04:09:10;27.27;;;17.00;;
7773;SDS011;3931;42.260;23.116;2022-09-01T04:11:37;28.63;;;16.13;;
7773;SDS011;3931;42.260;23.116;2022-09-01T04:14:05;36.77;;;27.30;;
7773;SDS011;3931;42.260;23.116;2022-09-01T04:16:32;60.33;;;34.67;;
7773;SDS011;3931;42.260;23.116;2022-09-01T04:19:18;28.83;;;21.03;;
7773;SDS011;3931;42.260;23.116;2022-09-01T04:21:49;56.87;;;38.67;;
7773;SDS011;3931;42.260;23.116;2022-09-01T04:24:17;52.07;;;33.20;;
7773;SDS011;3931;42.260;23.116;2022-09-01T04:26:44;40.73;;;29.83;;
7773;SDS011;3931;42.260;23.116;2022-09-01T04:29:14;23.33;;;18.90;;
7773;SDS011;3931;42.260;23.116;2022-09-01T04:31:43;29.10;;;22.17;;
7773;SDS011;3931;42.260;23.116;2022-09-01T04:34:17;25.60;;;19.47;;
7773;SDS011;3931;42.260;23.116;2022-09-01T04:36:43;27.10;;;18.80;;
7773;SDS011;3931;42.260;23.116;2022-09-01T04:39:11;25.87;;;19.87;;
7773;SDS011;3931;42.260;23.116;2022-09-01T04:41:38;26.23;;;19.63;;
7773;SDS011;3931;42.260;23.116;2022-09-01T04:44:08;24.73;;;19.47;;
7773;SDS011;3931;42.260;23.116;2022-09-01T04:46:36;29.80;;;18.07;;
7773;SDS011;3931;42.260;23.116;2022-09-01T04:49:06;26.60;;;16.13;;
7773;SDS011;3931;42.260;23.116;2022-09-01T04:51:36;19.73;;;14.83;;
7773;SDS011;3931;42.260;23.116;2022-09-01T04:54:03;25.07;;;16.60;;
7773;SDS011;3931;42.260;23.116;2022-09-01T04:56:37;26.43;;;15.93;;
7773;SDS011;3931;42.260;23.116;2022-09-01T04:59:03;16.73;;;13.80;;
7773;SDS011;3931;42.260;23.116;2022-09-01T05:01:32;21.07;;;15.00;;
7773;SDS011;3931;42.260;23.116;2022-09-01T05:04:07;16.23;;;13.60;;
7773;SDS011;3931;42.260;23.116;2022-09-01T05:06:34;16.73;;;13.60;;
7773;SDS011;3931;42.260;23.116;2022-09-01T05:09:03;20.87;;;14.00;;
7773;SDS011;3931;42.260;23.116;2022-09-01T05:11:29;19.20;;;13.30;;
7773;SDS011;3931;42.260;23.116;2022-09-01T05:13:57;32.67;;;14.60;;
7773;SDS011;3931;42.260;23.116;2022-09-01T05:16:23;53.40;;;37.00;;
7773;SDS011;3931;42.260;23.116;2022-09-01T05:18:52;39.07;;;24.47;;
7773;SDS011;3931;42.260;23.116;2022-09-01T05:21:22;20.60;;;16.20;;
7773;SDS011;3931;42.260;23.116;2022-09-01T05:23:50;19.93;;;15.57;;
7773;SDS011;3931;42.260;23.116;2022-09-01T05:26:19;19.23;;;13.90;;
7773;SDS011;3931;42.260;23.116;2022-09-01T05:28:47;22.63;;;14.47;;
7773;SDS011;3931;42.260;23.116;2022-09-01T05:31:15;20.67;;;14.23;;
7773;SDS011;3931;42.260;23.116;2022-09-01T05:33:43;26.03;;;14.73;;
7773;SDS011;3931;42.260;23.116;2022-09-01T05:36:13;21.70;;;14.60;;
7773;SDS011;3931;42.260;23.116;2022-09-01T05:38:40;21.30;;;15.43;;
7773;SDS011;3931;42.260;23.116;2022-09-01T05:41:07;21.93;;;15.53;;
7773;SDS011;3931;42.260;23.116;2022-09-01T05:43:35;31.60;;;14.70;;
7773;SDS011;3931;42.260;23.116;2022-09-01T05:46:04;26.90;;;16.30;;
7773;SDS011;3931;42.260;23.116;2022-09-01T05:48:32;28.93;;;15.93;;
7773;SDS011;3931;42.260;23.116;2022-09-01T05:51:04;32.13;;;16.13;;
7773;SDS011;3931;42.260;23.116;2022-09-01T05:53:30;19.10;;;13.50;;
7773;SDS011;3931;42.260;23.116;2022-09-01T05:55:59;27.83;;;13.97;;
7773;SDS011;3931;42.260;23.116;2022-09-01T05:58:31;22.20;;;14.83;;
7773;SDS011;3931;42.260;23.116;2022-09-01T06:00:59;32.03;;;15.57;;
7773;SDS011;3931;42.260;23.116;2022-09-01T06:03:25;30.50;;;15.40;;
7773;SDS011;3931;42.260;23.116;2022-09-01T06:05:52;31.20;;;15.97;;
7773;SDS011;3931;42.260;23.116;2022-09-01T06:08:20;20.90;;;12.80;;
7773;SDS011;3931;42.260;23.116;2022-09-01T06:10:49;38.33;;;17.10;;
7773;SDS011;3931;42.260;23.116;2022-09-01T06:13:17;31.63;;;15.67;;
7773;SDS011;3931;42.260;23.116;2022-09-01T06:15:46;44.60;;;16.53;;
7773;SDS011;3931;42.260;23.116;2022-09-01T06:18:13;53.87;;;16.90;;
7773;SDS011;3931;42.260;23.116;2022-09-01T06:20:42;67.83;;;18.53;;
7773;SDS011;3931;42.260;23.116;2022-09-01T06:23:11;28.87;;;15.23;;
7773;SDS011;3931;42.260;23.116;2022-09-01T06:25:39;46.40;;;16.80;;
7773;SDS011;3931;42.260;23.116;2022-09-01T06:28:06;39.13;;;17.67;;
7773;SDS011;3931;42.260;23.116;2022-09-01T06:30:33;24.60;;;15.53;;
7773;SDS011;3931;42.260;23.116;2022-09-01T06:33:00;33.37;;;15.33;;
7773;SDS011;3931;42.260;23.116;2022-09-01T06:35:29;29.63;;;16.47;;
7773;SDS011;3931;42.260;23.116;2022-09-01T06:37:56;31.80;;;14.77;;
7773;SDS011;3931;42.260;23.116;2022-09-01T06:40:23;26.40;;;14.67;;
7773;SDS011;3931;42.260;23.116;2022-09-01T06:42:50;46.67;;;15.10;;
7773;SDS011;3931;42.260;23.116;2022-09-01T06:45:17;52.63;;;17.00;;
7773;SDS011;3931;42.260;23.116;2022-09-01T06:47:46;40.77;;;17.50;;
7773;SDS011;3931;42.260;23.116;2022-09-01T06:50:16;44.80;;;17.97;;
7773;SDS011;3931;42.260;23.116;2022-09-01T06:52:46;47.53;;;17.17;;
7773;SDS011;3931;42.260;23.116;2022-09-01T06:55:14;63.27;;;17.77;;
7773;SDS011;3931;42.260;23.116;2022-09-01T06:57:41;57.27;;;18.20;;
7773;SDS011;3931;42.260;23.116;2022-09-01T07:00:19;59.53;;;16.73;;
7773;SDS011;3931;42.260;23.116;2022-09-01T07:02:46;75.90;;;20.50;;
7773;SDS011;3931;42.260;23.116;2022-09-01T07:05:17;68.70;;;19.50;;
7773;SDS011;3931;42.260;23.116;2022-09-01T07:07:45;41.47;;;16.43;;
7773;SDS011;3931;42.260;23.116;2022-09-01T07:10:15;52.63;;;17.60;;
7773;SDS011;3931;42.260;23.116;2022-09-01T07:12:46;40.70;;;17.40;;
7773;SDS011;3931;42.260;23.116;2022-09-01T07:15:13;44.63;;;18.20;;
7773;SDS011;3931;42.260;23.116;2022-09-01T07:17:42;61.30;;;17.60;;
7773;SDS011;3931;42.260;23.116;2022-09-01T07:20:13;57.20;;;17.00;;
7773;SDS011;3931;42.260;23.116;2022-09-01T07:22:40;61.70;;;19.20;;
7773;SDS011;3931;42.260;23.116;2022-09-01T07:25:07;51.67;;;19.00;;
7773;SDS011;3931;42.260;23.116;2022-09-01T07:27:36;48.87;;;16.90;;
7773;SDS011;3931;42.260;23.116;2022-09-01T07:30:03;67.23;;;17.33;;
7773;SDS011;3931;42.260;23.116;2022-09-01T07:32:33;67.33;;;17.50;;
7773;SDS011;3931;42.260;23.116;2022-09-01T07:35:00;58.50;;;17.23;;
7773;SDS011;3931;42.260;23.116;2022-09-01T07:37:28;73.80;;;18.03;;
7773;SDS011;3931;42.260;23.116;2022-09-01T07:39:56;71.93;;;17.40;;
7773;SDS011;3931;42.260;23.116;2022-09-01T07:42:22;56.10;;;17.77;;
7773;SDS011;3931;42.260;23.116;2022-09-01T07:44:48;50.97;;;16.33;;
7773;SDS011;3931;42.260;23.116;2022-09-01T07:47:15;64.13;;;18.33;;
7773;SDS011;3931;42.260;23.116;2022-09-01T07:49:41;67.50;;;15.50;;
7773;SDS011;3931;42.260;23.116;2022-09-01T07:52:07;57.83;;;16.47;;
7773;SDS011;3931;42.260;23.116;2022-09-01T07:54:35;79.80;;;18.10;;
7773;SDS011;3931;42.260;23.116;2022-09-01T07:57:02;43.97;;;15.80;;
7773;SDS011;3931;42.260;23.116;2022-09-01T07:59:29;61.73;;;15.73;;
7773;SDS011;3931;42.260;23.116;2022-09-01T08:01:57;50.10;;;16.17;;
7773;SDS011;3931;42.260;23.116;2022-09-01T08:04:25;51.63;;;15.00;;
7773;SDS011;3931;42.260;23.116;2022-09-01T08:06:51;43.90;;;14.77;;
7773;SDS011;3931;42.260;23.116;2022-09-01T08:09:17;54.40;;;16.90;;
7773;SDS011;3931;42.260;23.116;2022-09-01T08:11:44;50.00;;;16.67;;
7773;SDS011;3931;42.260;23.116;2022-09-01T08:14:10;63.47;;;15.30;;
7773;SDS011;3931;42.260;23.116;2022-09-01T08:16:36;47.93;;;17.47;;
7773;SDS011;3931;42.260;23.116;2022-09-01T08:19:02;55.27;;;15.83;;
7773;SDS011;3931;42.260;23.116;2022-09-01T08:21:28;44.33;;;15.13;;
7773;SDS011;3931;42.260;23.116;2022-09-01T08:23:55;43.93;;;15.60;;
7773;SDS011;3931;42.260;23.116;2022-09-01T08:26:22;47.70;;;16.17;;
7773;SDS011;3931;42.260;23.116;2022-09-01T08:28:51;48.53;;;17.20;;
7773;SDS011;3931;42.260;23.116;2022-09-01T08:31:18;40.10;;;14.60;;
7773;SDS011;3931;42.260;23.116;2022-09-01T08:33:46;38.80;;;14.40;;
7773;SDS011;3931;42.260;23.116;2022-09-01T08:36:14;58.90;;;17.50;;
7773;SDS011;3931;42.260;23.116;2022-09-01T08:38:41;49.30;;;15.33;;
7773;SDS011;3931;42.260;23.116;2022-09-01T08:41:12;37.43;;;14.40;;
7773;SDS011;3931;42.260;23.116;2022-09-01T08:43:44;35.63;;;13.23;;
7773;SDS011;3931;42.260;23.116;2022-09-01T08:46:19;38.47;;;13.43;;
7773;SDS011;3931;42.260;23.116;2022-09-01T08:48:49;80.43;;;13.80;;
7773;SDS011;3931;42.260;23.116;2022-09-01T08:51:19;47.13;;;14.80;;
7773;SDS011;3931;42.260;23.116;2022-09-01T08:53:52;37.83;;;15.23;;
7773;SDS011;3931;42.260;23.116;2022-09-01T08:56:23;38.57;;;14.00;;
7773;SDS011;3931;42.260;23.116;2022-09-01T08:58:51;37.47;;;14.60;;
7773;SDS011;3931;42.260;23.116;2022-09-01T09:01:20;43.13;;;13.27;;
7773;SDS011;3931;42.260;23.116;2022-09-01T09:03:57;33.53;;;12.97;;
7773;SDS011;3931;42.260;23.116;2022-09-01T09:06:41;38.73;;;13.00;;
7773;SDS011;3931;42.260;23.116;2022-09-01T09:09:15;35.97;;;13.90;;
7773;SDS011;3931;42.260;23.116;2022-09-01T09:14:41;77.63;;;16.13;;
7773;SDS011;3931;42.260;23.116;2022-09-01T09:17:20;41.37;;;14.73;;
7773;SDS011;3931;42.260;23.116;2022-09-01T09:19:50;34.50;;;12.80;;
7773;SDS011;3931;42.260;23.116;2022-09-01T09:22:17;33.10;;;13.93;;
7773;SDS011;3931;42.260;23.116;2022-09-01T09:24:45;47.03;;;14.33;;
7773;SDS011;3931;42.260;23.116;2022-09-01T09:27:16;33.10;;;11.90;;
7773;SDS011;3931;42.260;23.116;2022-09-01T09:29:45;26.93;;;11.40;;
7773;SDS011;3931;42.260;23.116;2022-09-01T09:32:12;24.63;;;11.82;;
7773;SDS011;3931;42.260;23.116;2022-09-01T09:34:40;27.20;;;11.43;;
7773;SDS011;3931;42.260;23.116;2022-09-01T09:37:18;39.67;;;12.40;;
7773;SDS011;3931;42.260;23.116;2022-09-01T09:40:08;25.00;;;11.80;;
7773;SDS011;3931;42.260;23.116;2022-09-01T09:42:40;24.52;;;12.65;;
7773;SDS011;3931;42.260;23.116;2022-09-01T09:45:20;25.63;;;10.65;;
7773;SDS011;3931;42.260;23.116;2022-09-01T09:47:48;29.38;;;12.30;;
7773;SDS011;3931;42.260;23.116;2022-09-01T09:50:18;28.10;;;11.15;;
7773;SDS011;3931;42.260;23.116;2022-09-01T09:52:47;31.23;;;10.73;;
7773;SDS011;3931;42.260;23.116;2022-09-01T09:55:20;20.70;;;11.07;;
7773;SDS011;3931;42.260;23.116;2022-09-01T09:57:52;17.92;;;9.70;;
7773;SDS011;3931;42.260;23.116;2022-09-01T10:00:21;26.90;;;10.00;;
7773;SDS011;3931;42.260;23.116;2022-09-01T10:02:53;24.15;;;9.48;;
7773;SDS011;3931;42.260;23.116;2022-09-01T10:05:24;17.98;;;10.30;;
7773;SDS011;3931;42.260;23.116;2022-09-01T10:07:57;22.70;;;12.68;;
7773;SDS011;3931;42.260;23.116;2022-09-01T10:10:24;20.35;;;10.50;;
7773;SDS011;3931;42.260;23.116;2022-09-01T10:12:54;17.38;;;8.77;;
7773;SDS011;3931;42.260;23.116;2022-09-01T10:15:23;21.05;;;9.68;;
7773;SDS011;3931;42.260;23.116;2022-09-01T10:17:50;22.35;;;9.75;;
7773;SDS011;3931;42.260;23.116;2022-09-01T10:20:20;26.63;;;10.30;;
7773;SDS011;3931;42.260;23.116;2022-09-01T10:22:50;20.70;;;11.85;;
7773;SDS011;3931;42.260;23.116;2022-09-01T10:25:18;21.83;;;11.05;;
7773;SDS011;3931;42.260;23.116;2022-09-01T10:27:46;22.48;;;11.85;;
7773;SDS011;3931;42.260;23.116;2022-09-01T10:30:15;21.48;;;11.25;;
7773;SDS011;3931;42.260;23.116;2022-09-01T10:32:43;13.18;;;9.52;;
7773;SDS011;3931;42.260;23.116;2022-09-01T10:35:11;18.65;;;9.27;;
7773;SDS011;3931;42.260;23.116;2022-09-01T10:37:42;15.57;;;10.55;;
7773;SDS011;3931;42.260;23.116;2022-09-01T10:40:11;16.63;;;11.07;;
7773;SDS011;3931;42.260;23.116;2022-09-01T10:42:41;20.45;;;10.32;;
7773;SDS011;3931;42.260;23.116;2022-09-01T10:45:17;19.33;;;9.13;;
7773;SDS011;3931;42.260;23.116;2022-09-01T10:47:46;13.85;;;8.82;;
7773;SDS011;3931;42.260;23.116;2022-09-01T10:50:25;21.52;;;10.05;;
7773;SDS011;3931;42.260;23.116;2022-09-01T10:53:03;26.38;;;10.07;;
7773;SDS011;3931;42.260;23.116;2022-09-01T10:55:36;14.88;;;8.68;;
7773;SDS011;3931;42.260;23.116;2022-09-01T11:01:03;17.23;;;9.50;;
7773;SDS011;3931;42.260;23.116;2022-09-01T11:03:49;22.70;;;9.88;;
7773;SDS011;3931;42.260;23.116;2022-09-01T11:09:26;20.02;;;9.23;;
7773;SDS011;3931;42.260;23.116;2022-09-01T11:12:08;22.50;;;10.05;;
7773;SDS011;3931;42.260;23.116;2022-09-01T11:14:52;17.42;;;11.02;;
7773;SDS011;3931;42.260;23.116;2022-09-01T11:17:20;16.67;;;9.07;;
7773;SDS011;3931;42.260;23.116;2022-09-01T11:19:56;17.17;;;9.55;;
7773;SDS011;3931;42.260;23.116;2022-09-01T11:22:30;16.77;;;9.45;;
7773;SDS011;3931;42.260;23.116;2022-09-01T11:25:05;13.50;;;10.30;;
7773;SDS011;3931;42.260;23.116;2022-09-01T11:31:16;19.27;;;9.02;;
7773;SDS011;3931;42.260;23.116;2022-09-01T11:33:52;17.25;;;8.90;;
7773;SDS011;3931;42.260;23.116;2022-09-01T11:36:28;10.75;;;7.95;;
7773;SDS011;3931;42.260;23.116;2022-09-01T11:39:03;15.55;;;8.80;;
7773;SDS011;3931;42.260;23.116;2022-09-01T11:41:33;14.15;;;8.90;;
7773;SDS011;3931;42.260;23.116;2022-09-01T11:44:11;25.95;;;9.20;;
7773;SDS011;3931;42.260;23.116;2022-09-01T11:46:39;10.98;;;7.65;;
7773;SDS011;3931;42.260;23.116;2022-09-01T11:49:22;16.35;;;8.32;;
7773;SDS011;3931;42.260;23.116;2022-09-01T11:51:52;13.38;;;7.65;;
7773;SDS011;3931;42.260;23.116;2022-09-01T11:54:19;19.85;;;8.93;;
7773;SDS011;3931;42.260;23.116;2022-09-01T11:56:47;19.13;;;8.32;;
7773;SDS011;3931;42.260;23.116;2022-09-01T11:59:13;19.33;;;8.38;;
7773;SDS011;3931;42.260;23.116;2022-09-01T12:01:55;12.90;;;8.98;;
7773;SDS011;3931;42.260;23.116;2022-09-01T12:04:23;14.35;;;8.30;;
7773;SDS011;3931;42.260;23.116;2022-09-01T12:06:53;15.25;;;9.43;;
7773;SDS011;3931;42.260;23.116;2022-09-01T12:09:22;14.52;;;8.50;;
7773;SDS011;3931;42.260;23.116;2022-09-01T12:11:57;17.40;;;8.52;;
7773;SDS011;3931;42.260;23.116;2022-09-01T12:14:24;15.25;;;8.80;;
7773;SDS011;3931;42.260;23.116;2022-09-01T12:17:01;17.45;;;8.52;;
7773;SDS011;3931;42.260;23.116;2022-09-01T12:19:32;26.63;;;9.35;;
7773;SDS011;3931;42.260;23.116;2022-09-01T12:22:00;12.90;;;7.07;;
7773;SDS011;3931;42.260;23.116;2022-09-01T12:24:30;16.52;;;9.00;;
7773;SDS011;3931;42.260;23.116;2022-09-01T12:26:59;17.60;;;8.32;;
7773;SDS011;3931;42.260;23.116;2022-09-01T12:29:26;14.02;;;8.40;;
7773;SDS011;3931;42.260;23.116;2022-09-01T12:31:53;19.80;;;8.05;;
7773;SDS011;3931;42.260;23.116;2022-09-01T12:34:24;11.80;;;9.00;;
7773;SDS011;3931;42.260;23.116;2022-09-01T12:37:02;23.98;;;9.20;;
7773;SDS011;3931;42.260;23.116;2022-09-01T12:39:32;24.67;;;11.35;;
7773;SDS011;3931;42.260;23.116;2022-09-01T12:42:01;19.35;;;8.40;;
7773;SDS011;3931;42.260;23.116;2022-09-01T12:44:31;17.90;;;8.02;;
7773;SDS011;3931;42.260;23.116;2022-09-01T12:47:00;14.43;;;9.02;;
7773;SDS011;3931;42.260;23.116;2022-09-01T12:49:33;24.17;;;10.10;;
7773;SDS011;3931;42.260;23.116;2022-09-01T12:52:05;14.35;;;8.45;;
7773;SDS011;3931;42.260;23.116;2022-09-01T12:54:35;10.65;;;8.30;;
7773;SDS011;3931;42.260;23.116;2022-09-01T12:57:02;18.48;;;8.23;;
7773;SDS011;3931;42.260;23.116;2022-09-01T12:59:29;13.32;;;8.73;;
7773;SDS011;3931;42.260;23.116;2022-09-01T13:01:56;11.07;;;7.60;;
7773;SDS011;3931;42.260;23.116;2022-09-01T13:04:24;10.52;;;7.68;;
7773;SDS011;3931;42.260;23.116;2022-09-01T13:06:53;15.85;;;8.88;;
7773;SDS011;3931;42.260;23.116;2022-09-01T13:09:20;14.73;;;8.95;;
7773;SDS011;3931;42.260;23.116;2022-09-01T13:11:46;21.08;;;7.97;;
7773;SDS011;3931;42.260;23.116;2022-09-01T13:14:13;24.50;;;9.82;;
7773;SDS011;3931;42.260;23.116;2022-09-01T13:16:39;24.65;;;8.77;;
7773;SDS011;3931;42.260;23.116;2022-09-01T13:19:07;19.23;;;8.82;;
7773;SDS011;3931;42.260;23.116;2022-09-01T13:21:33;17.33;;;7.90;;
7773;SDS011;3931;42.260;23.116;2022-09-01T13:24:00;13.68;;;9.35;;
7773;SDS011;3931;42.260;23.116;2022-09-01T13:26:29;17.75;;;8.50;;
7773;SDS011;3931;42.260;23.116;2022-09-01T13:28:55;21.17;;;9.20;;
7773;SDS011;3931;42.260;23.116;2022-09-01T13:31:21;13.02;;;9.13;;
7773;SDS011;3931;42.260;23.116;2022-09-01T13:33:47;26.40;;;9.73;;
7773;SDS011;3931;42.260;23.116;2022-09-01T13:36:14;29.92;;;8.77;;
7773;SDS011;3931;42.260;23.116;2022-09-01T13:38:40;18.33;;;10.07;;
7773;SDS011;3931;42.260;23.116;2022-09-01T13:41:06;16.08;;;10.30;;
7773;SDS011;3931;42.260;23.116;2022-09-01T13:43:35;21.17;;;8.52;;
7773;SDS011;3931;42.260;23.116;2022-09-01T13:46:01;29.23;;;8.85;;
7773;SDS011;3931;42.260;23.116;2022-09-01T13:48:28;25.45;;;9.63;;
7773;SDS011;3931;42.260;23.116;2022-09-01T13:50:54;20.30;;;9.85;;
7773;SDS011;3931;42.260;23.116;2022-09-01T13:53:22;36.35;;;12.05;;
7773;SDS011;3931;42.260;23.116;2022-09-01T13:55:48;26.17;;;11.30;;
7773;SDS011;3931;42.260;23.116;2022-09-01T13:58:15;19.25;;;9.98;;
7773;SDS011;3931;42.260;23.116;2022-09-01T14:00:41;23.57;;;10.43;;
7773;SDS011;3931;42.260;23.116;2022-09-01T14:03:09;12.37;;;10.87;;
7773;SDS011;3931;42.260;23.116;2022-09-01T14:05:38;24.07;;;11.67;;
7773;SDS011;3931;42.260;23.116;2022-09-01T14:08:06;22.60;;;12.30;;
7773;SDS011;3931;42.260;23.116;2022-09-01T14:10:36;20.20;;;11.50;;
7773;SDS011;3931;42.260;23.116;2022-09-01T14:13:05;26.00;;;12.80;;
7773;SDS011;3931;42.260;23.116;2022-09-01T14:15:32;14.60;;;11.33;;
7773;SDS011;3931;42.260;23.116;2022-09-01T14:17:58;18.20;;;13.10;;
7773;SDS011;3931;42.260;23.116;2022-09-01T14:20:25;30.47;;;13.70;;
7773;SDS011;3931;42.260;23.116;2022-09-01T14:22:55;23.43;;;12.90;;
7773;SDS011;3931;42.260;23.116;2022-09-01T14:25:22;21.73;;;11.63;;
7773;SDS011;3931;42.260;23.116;2022-09-01T14:27:50;25.23;;;13.20;;
7773;SDS011;3931;42.260;23.116;2022-09-01T14:30:18;16.93;;;13.03;;
7773;SDS011;3931;42.260;23.116;2022-09-01T14:32:47;15.60;;;12.50;;
7773;SDS011;3931;42.260;23.116;2022-09-01T14:35:14;20.60;;;13.20;;
7773;SDS011;3931;42.260;23.116;2022-09-01T14:37:42;21.73;;;14.47;;
7773;SDS011;3931;42.260;23.116;2022-09-01T14:40:10;25.57;;;14.47;;
7773;SDS011;3931;42.260;23.116;2022-09-01T14:42:39;28.63;;;13.80;;
7773;SDS011;3931;42.260;23.116;2022-09-01T14:45:09;19.43;;;12.83;;
7773;SDS011;3931;42.260;23.116;2022-09-01T14:47:36;18.17;;;13.10;;
7773;SDS011;3931;42.260;23.116;2022-09-01T14:50:02;26.20;;;13.97;;
7773;SDS011;3931;42.260;23.116;2022-09-01T14:52:29;32.60;;;13.53;;
7773;SDS011;3931;42.260;23.116;2022-09-01T14:54:55;25.70;;;14.80;;
7773;SDS011;3931;42.260;23.116;2022-09-01T14:57:21;24.27;;;13.20;;
7773;SDS011;3931;42.260;23.116;2022-09-01T14:59:47;21.40;;;13.70;;
7773;SDS011;3931;42.260;23.116;2022-09-01T15:02:14;37.93;;;13.63;;